Time;durP1;ratioP1;P1;durP2;ratioP2;P2;SDS_P1;SDS_P2;PMS_P1;PMS_P2;Temp;Humidity;BMP_temperature;BMP_pressure;BME280_temperature;BME280_humidity;BME280_pressure;Samples;Min_cycle;Max_cycle;Signal;HPM_P1;HPM_P2
2024/01/31 00:01:25;;;;;;;13.65;8.85;;;9.00;99.90;;;;;;4117787;28;20514;-75
2024/01/31 00:03:26;;;;;;;9.90;7.07;;;9.10;99.90;;;;;;4158286;28;20033;-74
2024/01/31 00:05:26;;;;;;;10.70;5.95;;;9.10;99.90;;;;;;4138706;28;20025;-74
2024/01/31 00:07:27;;;;;;;12.10;7.47;;;9.10;99.90;;;;;;4140963;28;20034;-74
2024/01/31 00:09:28;;;;;;;12.07;6.93;;;9.10;99.90;;;;;;4159705;28;20467;-74
2024/01/31 00:11:29;;;;;;;12.05;7.25;;;9.10;99.90;;;;;;4158194;28;20036;-75
2024/01/31 00:13:29;;;;;;;13.55;6.28;;;9.00;99.90;;;;;;4159028;28;20025;-75
2024/01/31 00:15:30;;;;;;;12.13;6.13;;;9.00;99.90;;;;;;4158800;28;20145;-75
2024/01/31 00:17:31;;;;;;;14.35;6.28;;;9.00;99.90;;;;;;4138243;28;20427;-74
2024/01/31 00:19:31;;;;;;;10.95;6.13;;;9.00;99.90;;;;;;4155669;28;20503;-74
2024/01/31 00:21:32;;;;;;;13.70;5.90;;;9.00;99.90;;;;;;4158249;28;20029;-76
2024/01/31 00:23:32;;;;;;;13.07;5.43;;;9.00;99.90;;;;;;4159345;28;20417;-74
2024/01/31 00:25:33;;;;;;;11.15;5.82;;;9.00;99.90;;;;;;4156093;28;20506;-74
2024/01/31 00:27:33;;;;;;;9.07;5.05;;;9.00;99.90;;;;;;4137791;28;20033;-75
2024/01/31 00:29:34;;;;;;;7.72;4.97;;;9.00;99.90;;;;;;4155545;28;20573;-75
2024/01/31 00:31:35;;;;;;;10.88;5.20;;;9.00;99.90;;;;;;4141253;28;20407;-75
2024/01/31 00:33:35;;;;;;;12.15;4.97;;;9.00;99.90;;;;;;4159055;28;20029;-74
2024/01/31 00:35:36;;;;;;;11.20;5.10;;;8.90;99.90;;;;;;4158436;28;20030;-74
2024/01/31 00:37:36;;;;;;;12.85;5.13;;;8.90;99.90;;;;;;4157172;28;20030;-75
2024/01/31 00:39:38;;;;;;;7.50;3.95;;;8.90;99.90;;;;;;4159437;28;20034;-74
2024/01/31 00:41:38;;;;;;;13.00;4.72;;;8.90;99.90;;;;;;4155332;28;20060;-75
2024/01/31 00:43:39;;;;;;;8.63;4.63;;;8.90;99.90;;;;;;4157729;28;20691;-75
2024/01/31 00:45:39;;;;;;;9.35;4.95;;;8.90;99.90;;;;;;4157974;28;20539;-75
2024/01/31 00:47:41;;;;;;;12.68;5.25;;;8.90;99.90;;;;;;4135186;28;20578;-74
2024/01/31 00:49:41;;;;;;;12.05;4.93;;;9.00;99.90;;;;;;4139823;28;20506;-74
2024/01/31 00:51:43;;;;;;;9.13;4.30;;;8.90;99.90;;;;;;4157676;28;20021;-75
2024/01/31 00:53:44;;;;;;;11.75;4.55;;;8.90;99.90;;;;;;4141274;28;20096;-74
2024/01/31 00:55:44;;;;;;;7.70;4.20;;;8.90;99.90;;;;;;4157545;28;20491;-74
2024/01/31 00:57:46;;;;;;;11.15;3.85;;;8.90;99.90;;;;;;4157121;28;20399;-76
2024/01/31 00:59:47;;;;;;;9.57;4.10;;;8.90;99.90;;;;;;4158318;28;20033;-74
2024/01/31 01:01:47;;;;;;;10.88;5.45;;;8.90;99.90;;;;;;4136160;28;20034;-76
2024/01/31 01:03:48;;;;;;;11.30;3.67;;;8.90;99.90;;;;;;4139810;28;20446;-74
2024/01/31 01:05:48;;;;;;;8.85;4.38;;;8.90;99.90;;;;;;4154824;28;20038;-74
2024/01/31 01:07:50;;;;;;;6.60;3.85;;;8.90;99.90;;;;;;4157588;28;20057;-74
2024/01/31 01:09:51;;;;;;;7.63;3.75;;;8.90;99.90;;;;;;4139282;28;20030;-77
2024/01/31 01:11:52;;;;;;;11.70;4.28;;;8.90;99.90;;;;;;4156567;28;20811;-75
2024/01/31 01:13:52;;;;;;;7.18;4.22;;;8.90;99.90;;;;;;4133067;28;20520;-75
2024/01/31 01:15:53;;;;;;;8.55;4.47;;;8.90;99.90;;;;;;4157054;28;20391;-74
2024/01/31 01:17:53;;;;;;;11.80;4.55;;;8.90;99.90;;;;;;4156482;28;20049;-74
2024/01/31 01:19:54;;;;;;;15.45;4.57;;;8.90;99.90;;;;;;4158967;28;20044;-74
2024/01/31 01:21:56;;;;;;;7.88;3.80;;;8.90;99.90;;;;;;4153322;28;20121;-74
2024/01/31 01:23:56;;;;;;;8.32;4.10;;;8.90;99.90;;;;;;4157629;28;20065;-74
2024/01/31 01:25:57;;;;;;;13.88;4.28;;;8.90;99.90;;;;;;4123435;28;20057;-75
2024/01/31 01:27:58;;;;;;;9.75;4.00;;;8.90;99.90;;;;;;4156412;28;20083;-75
2024/01/31 01:29:58;;;;;;;10.85;3.80;;;8.80;99.90;;;;;;4139723;28;20057;-74
2024/01/31 01:31:59;;;;;;;7.30;3.60;;;8.80;99.90;;;;;;4139849;28;20034;-80
2024/01/31 01:33:59;;;;;;;7.82;4.35;;;8.80;99.90;;;;;;4154733;28;20060;-81
2024/01/31 01:36:00;;;;;;;7.60;4.07;;;8.80;99.90;;;;;;4157885;28;20025;-80
2024/01/31 01:38:01;;;;;;;7.35;3.53;;;8.80;99.90;;;;;;4139954;28;20042;-80
2024/01/31 01:40:02;;;;;;;7.32;4.03;;;8.80;99.90;;;;;;4156156;28;20136;-80
2024/01/31 01:42:03;;;;;;;10.40;4.07;;;8.80;99.90;;;;;;4134908;28;20480;-77
2024/01/31 01:44:03;;;;;;;6.05;3.45;;;8.80;99.90;;;;;;4158125;28;20510;-76
2024/01/31 01:46:14;;;;;;;8.15;4.40;;;8.80;99.90;;;;;;4157787;28;20040;-76
2024/01/31 01:48:16;;;;;;;8.00;3.80;;;8.70;99.90;;;;;;4152467;28;20033;-77
2024/01/31 01:50:17;;;;;;;8.23;3.40;;;8.70;99.90;;;;;;4155712;28;20040;-76
2024/01/31 01:52:18;;;;;;;7.97;3.22;;;8.70;99.90;;;;;;4152833;28;20129;-77
2024/01/31 01:54:20;;;;;;;11.50;3.58;;;8.70;99.90;;;;;;4154811;28;20100;-76
2024/01/31 01:56:21;;;;;;;5.28;2.85;;;8.70;99.90;;;;;;4151141;28;20052;-76
2024/01/31 01:58:22;;;;;;;6.63;2.90;;;8.60;99.90;;;;;;4156070;28;20034;-76
2024/01/31 02:00:27;;;;;;;10.25;2.80;;;8.60;99.90;;;;;;4156018;28;20044;-76
2024/01/31 02:02:28;;;;;;;8.13;3.15;;;8.60;99.90;;;;;;4140160;28;20475;-76
2024/01/31 02:04:29;;;;;;;6.82;2.95;;;8.60;99.90;;;;;;4140447;28;20030;-77
2024/01/31 02:06:30;;;;;;;12.13;3.33;;;8.60;99.90;;;;;;4135427;28;20125;-77
2024/01/31 02:08:30;;;;;;;8.40;3.35;;;8.60;99.90;;;;;;4156499;28;20072;-76
2024/01/31 02:10:31;;;;;;;7.50;2.35;;;8.50;99.90;;;;;;4156428;28;20033;-76
2024/01/31 02:12:32;;;;;;;7.38;2.53;;;8.50;99.90;;;;;;4157775;28;20037;-76
2024/01/31 02:14:32;;;;;;;6.88;2.47;;;8.40;99.90;;;;;;4152187;28;20403;-77
2024/01/31 02:16:33;;;;;;;7.95;3.08;;;8.40;99.90;;;;;;4153546;28;20025;-75
2024/01/31 02:18:33;;;;;;;5.65;2.10;;;8.40;99.90;;;;;;4133460;28;20523;-76
2024/01/31 02:20:35;;;;;;;6.50;2.50;;;8.30;99.90;;;;;;4147781;28;20441;-76
2024/01/31 02:22:35;;;;;;;6.93;2.58;;;8.30;99.90;;;;;;4149623;28;20133;-76
2024/01/31 02:24:36;;;;;;;5.82;2.00;;;8.30;99.90;;;;;;4153999;28;20034;-76
2024/01/31 02:26:37;;;;;;;5.75;2.10;;;8.30;99.90;;;;;;4152371;28;20084;-76
2024/01/31 02:28:37;;;;;;;5.70;2.28;;;8.30;99.90;;;;;;4137919;28;20045;-77
2024/01/31 02:30:38;;;;;;;8.23;2.67;;;8.30;99.90;;;;;;4153984;28;20026;-76
2024/01/31 02:32:38;;;;;;;10.40;2.63;;;8.30;99.90;;;;;;4155547;28;20033;-76
2024/01/31 02:34:39;;;;;;;8.38;2.10;;;8.30;99.90;;;;;;4156321;28;20037;-76
2024/01/31 02:36:39;;;;;;;5.68;1.90;;;8.30;99.90;;;;;;4133120;28;20042;-77
2024/01/31 02:38:40;;;;;;;5.63;2.10;;;8.30;99.90;;;;;;4152281;28;20046;-77
2024/01/31 02:40:41;;;;;;;6.43;2.30;;;8.30;99.90;;;;;;4153333;28;20037;-78
2024/01/31 02:42:42;;;;;;;4.68;1.80;;;8.40;99.90;;;;;;4159612;28;20075;-79
2024/01/31 02:44:42;;;;;;;5.75;2.42;;;8.40;99.90;;;;;;4153439;28;20045;-79
2024/01/31 02:46:43;;;;;;;5.13;1.85;;;8.40;99.90;;;;;;4152267;28;20059;-78
2024/01/31 02:48:45;;;;;;;5.43;2.03;;;8.40;99.90;;;;;;4154627;28;20501;-80
2024/01/31 02:50:46;;;;;;;4.15;1.60;;;8.40;99.90;;;;;;4161137;28;20026;-74
2024/01/31 02:52:48;;;;;;;2.33;1.45;;;8.40;99.90;;;;;;4139702;28;20125;-75
2024/01/31 02:54:51;;;;;;;6.60;2.08;;;8.40;99.90;;;;;;4137524;28;20546;-74
2024/01/31 02:56:51;;;;;;;4.65;1.92;;;8.40;99.90;;;;;;4136397;28;20093;-74
2024/01/31 02:58:52;;;;;;;6.53;2.10;;;8.40;99.90;;;;;;4138779;28;20041;-74
2024/01/31 03:00:53;;;;;;;5.78;1.90;;;8.40;99.90;;;;;;4135749;28;20281;-75
2024/01/31 03:02:53;;;;;;;3.78;1.85;;;8.40;99.90;;;;;;4137881;28;20038;-74
2024/01/31 03:04:54;;;;;;;4.78;1.77;;;8.40;99.90;;;;;;4138196;28;20478;-74
2024/01/31 03:06:54;;;;;;;4.07;1.45;;;8.40;99.90;;;;;;4139427;28;20042;-73
2024/01/31 03:08:55;;;;;;;9.13;1.85;;;8.40;99.90;;;;;;4134318;28;20076;-75
2024/01/31 03:10:56;;;;;;;4.28;1.83;;;8.40;99.90;;;;;;4134620;28;20026;-74
2024/01/31 03:12:56;;;;;;;4.75;1.83;;;8.40;99.90;;;;;;4132491;28;20507;-73
2024/01/31 03:14:57;;;;;;;6.15;2.22;;;8.50;99.90;;;;;;4154484;28;20025;-74
2024/01/31 03:16:58;;;;;;;4.72;1.83;;;8.50;99.90;;;;;;4139141;28;20484;-73
2024/01/31 03:18:58;;;;;;;4.68;1.52;;;8.50;99.90;;;;;;4138903;28;20053;-74
2024/01/31 03:20:59;;;;;;;4.88;1.75;;;8.50;99.90;;;;;;4141090;28;20545;-73
2024/01/31 03:22:59;;;;;;;3.55;1.40;;;8.50;99.90;;;;;;4134339;28;20041;-73
2024/01/31 03:25:00;;;;;;;3.40;1.60;;;8.50;99.90;;;;;;4143975;28;20033;-74
2024/01/31 03:27:02;;;;;;;3.97;1.77;;;8.50;99.90;;;;;;4156209;28;20402;-73
2024/01/31 03:29:03;;;;;;;2.45;1.45;;;8.50;99.90;;;;;;4141640;28;20038;-73
2024/01/31 03:31:04;;;;;;;4.60;1.63;;;8.50;99.90;;;;;;4158007;28;20033;-74
2024/01/31 03:33:05;;;;;;;5.05;2.00;;;8.50;99.90;;;;;;4144282;28;20399;-73
2024/01/31 03:35:06;;;;;;;4.28;1.33;;;8.60;99.90;;;;;;4138190;28;20046;-76
2024/01/31 03:37:07;;;;;;;3.90;1.60;;;8.60;99.90;;;;;;4139753;28;20399;-72
2024/01/31 03:39:12;;;;;;;5.30;1.60;;;8.60;99.90;;;;;;4135458;28;20044;-73
2024/01/31 03:41:12;;;;;;;3.13;1.52;;;8.60;99.90;;;;;;4141579;28;20612;-73
2024/01/31 03:43:13;;;;;;;2.33;1.45;;;8.60;99.90;;;;;;4139058;28;20049;-74
2024/01/31 03:45:13;;;;;;;4.82;1.73;;;8.60;99.90;;;;;;4138742;28;20045;-76
2024/01/31 03:47:14;;;;;;;4.03;1.77;;;8.60;99.90;;;;;;4140386;28;20057;-74
2024/01/31 03:49:15;;;;;;;3.70;1.80;;;8.60;99.90;;;;;;4158925;28;20522;-73
2024/01/31 03:51:19;;;;;;;4.20;1.40;;;8.60;99.90;;;;;;4140636;28;20036;-73
2024/01/31 03:53:20;;;;;;;2.13;1.33;;;8.60;99.90;;;;;;4154725;28;20037;-73
2024/01/31 03:55:20;;;;;;;4.47;1.45;;;8.60;99.90;;;;;;4143181;28;20049;-73
2024/01/31 03:57:21;;;;;;;3.85;1.60;;;8.60;99.90;;;;;;4141184;28;20495;-74
2024/01/31 03:59:22;;;;;;;2.90;1.48;;;8.60;99.90;;;;;;4157858;28;20549;-74
2024/01/31 04:01:22;;;;;;;3.97;1.83;;;8.60;99.90;;;;;;4139045;28;20030;-75
2024/01/31 04:03:23;;;;;;;2.92;1.23;;;8.60;99.90;;;;;;4139160;28;20042;-74
2024/01/31 04:05:23;;;;;;;3.30;1.35;;;8.60;99.90;;;;;;4133166;28;20112;-76
2024/01/31 04:07:24;;;;;;;2.03;1.20;;;8.60;99.90;;;;;;4142669;28;20038;-76
2024/01/31 04:09:25;;;;;;;4.50;1.40;;;8.60;99.90;;;;;;4141975;28;20030;-74
2024/01/31 04:11:25;;;;;;;3.03;1.20;;;8.60;99.90;;;;;;4139643;28;20515;-78
2024/01/31 04:13:26;;;;;;;4.18;1.70;;;8.60;99.90;;;;;;4140693;28;20518;-79
2024/01/31 04:15:27;;;;;;;3.53;1.48;;;8.60;99.90;;;;;;4140234;28;20034;-79
2024/01/31 04:17:27;;;;;;;5.63;1.77;;;8.50;99.90;;;;;;4140015;28;20038;-79
2024/01/31 04:19:28;;;;;;;3.28;1.42;;;8.50;99.90;;;;;;4139478;28;20026;-79
2024/01/31 04:21:29;;;;;;;4.50;1.25;;;8.50;99.90;;;;;;4140523;28;20040;-74
2024/01/31 04:23:29;;;;;;;2.78;1.25;;;8.50;99.90;;;;;;4158002;28;20848;-74
2024/01/31 04:25:30;;;;;;;4.70;1.65;;;8.50;99.90;;;;;;4142463;28;20706;-73
2024/01/31 04:27:31;;;;;;;2.85;1.50;;;8.50;99.90;;;;;;4157340;28;20387;-74
2024/01/31 04:29:31;;;;;;;2.55;1.20;;;8.60;99.90;;;;;;4140172;28;20089;-76
2024/01/31 04:31:33;;;;;;;3.40;1.50;;;8.60;99.90;;;;;;4138081;28;20379;-72
2024/01/31 04:33:34;;;;;;;3.63;1.40;;;8.60;99.90;;;;;;4141588;28;20105;-73
2024/01/31 04:35:34;;;;;;;4.47;1.30;;;8.60;99.90;;;;;;4140390;28;20034;-75
2024/01/31 04:37:35;;;;;;;2.80;1.23;;;8.60;99.90;;;;;;4140647;28;20453;-74
2024/01/31 04:39:36;;;;;;;2.28;1.40;;;8.60;99.90;;;;;;4141810;28;20048;-73
2024/01/31 04:41:37;;;;;;;4.57;1.42;;;8.60;99.90;;;;;;4157441;28;20104;-73
2024/01/31 04:43:40;;;;;;;2.83;1.55;;;8.60;99.90;;;;;;4142615;28;20030;-74
2024/01/31 04:45:41;;;;;;;3.28;1.20;;;8.60;99.90;;;;;;4138799;28;20040;-74
2024/01/31 04:47:42;;;;;;;3.45;1.45;;;8.60;99.90;;;;;;4141855;28;20571;-73
2024/01/31 04:49:42;;;;;;;3.60;1.60;;;8.60;99.90;;;;;;4142647;28;20044;-73
2024/01/31 04:51:43;;;;;;;3.60;1.40;;;8.60;99.90;;;;;;4140994;28;20395;-73
2024/01/31 04:53:43;;;;;;;3.80;1.40;;;8.60;99.90;;;;;;4158422;28;20042;-73
2024/01/31 04:55:44;;;;;;;3.38;1.38;;;8.60;99.90;;;;;;4140679;28;20034;-73
2024/01/31 04:57:45;;;;;;;2.92;1.23;;;8.70;99.90;;;;;;4157529;28;20399;-74
2024/01/31 04:59:45;;;;;;;2.05;1.35;;;8.60;99.90;;;;;;4154131;28;20560;-73
2024/01/31 05:01:46;;;;;;;2.20;1.25;;;8.60;99.90;;;;;;4147345;28;20488;-73
2024/01/31 05:03:47;;;;;;;4.18;1.63;;;8.60;99.90;;;;;;4156721;28;20025;-73
2024/01/31 05:05:47;;;;;;;2.35;1.55;;;8.50;99.90;;;;;;4154258;28;20033;-73
2024/01/31 05:07:48;;;;;;;3.63;1.38;;;8.50;99.90;;;;;;4137105;28;20083;-73
2024/01/31 05:09:49;;;;;;;1.63;1.15;;;8.50;99.90;;;;;;4133418;28;20026;-73
2024/01/31 05:11:49;;;;;;;4.00;1.48;;;8.50;99.90;;;;;;4154680;28;20392;-74
2024/01/31 05:13:50;;;;;;;3.55;1.35;;;8.50;99.90;;;;;;4155412;28;20052;-75
2024/01/31 05:15:51;;;;;;;3.47;1.33;;;8.50;99.90;;;;;;4151098;28;20372;-74
2024/01/31 05:17:51;;;;;;;4.00;1.75;;;8.50;99.90;;;;;;4154648;28;20076;-74
2024/01/31 05:19:52;;;;;;;2.63;1.35;;;8.50;99.90;;;;;;4157192;28;20159;-73
2024/01/31 05:21:52;;;;;;;3.00;1.40;;;8.50;99.90;;;;;;4155105;28;20519;-76
2024/01/31 05:23:53;;;;;;;3.10;1.45;;;8.50;99.90;;;;;;4156423;28;20026;-77
2024/01/31 05:25:54;;;;;;;3.75;1.80;;;8.50;99.90;;;;;;4153508;28;20022;-76
2024/01/31 05:27:54;;;;;;;3.35;1.60;;;8.50;99.90;;;;;;4156577;28;20033;-76
2024/01/31 05:29:55;;;;;;;5.95;1.90;;;8.50;99.90;;;;;;4155776;28;20033;-76
2024/01/31 05:31:56;;;;;;;3.90;2.03;;;8.50;99.90;;;;;;4137291;28;20030;-73
2024/01/31 05:33:56;;;;;;;4.68;1.88;;;8.50;99.90;;;;;;4152978;28;20033;-74
2024/01/31 05:36:01;;;;;;;3.67;1.58;;;8.50;99.90;;;;;;4156932;28;20490;-74
2024/01/31 05:38:04;;;;;;;4.25;2.13;;;8.50;99.90;;;;;;4134949;28;20038;-72
2024/01/31 05:40:06;;;;;;;3.17;1.83;;;8.50;99.90;;;;;;4152773;28;20394;-74
2024/01/31 05:42:06;;;;;;;4.10;2.30;;;8.50;99.90;;;;;;4136472;28;20046;-74
2024/01/31 05:44:07;;;;;;;3.17;1.90;;;8.50;99.90;;;;;;4133281;28;20407;-73
2024/01/31 05:46:08;;;;;;;2.85;1.90;;;8.50;99.90;;;;;;4153230;28;20060;-75
2024/01/31 05:48:08;;;;;;;3.35;1.60;;;8.50;99.90;;;;;;4155057;28;20404;-73
2024/01/31 05:50:09;;;;;;;3.72;1.95;;;8.60;99.90;;;;;;4142677;28;20380;-73
2024/01/31 05:52:10;;;;;;;4.25;1.90;;;8.60;99.90;;;;;;4152185;28;20450;-74
2024/01/31 05:54:11;;;;;;;3.65;1.70;;;8.50;99.90;;;;;;4156971;28;20042;-73
2024/01/31 05:56:11;;;;;;;4.05;1.90;;;8.60;99.90;;;;;;4155885;28;20033;-74
2024/01/31 05:58:12;;;;;;;5.88;1.90;;;8.50;99.90;;;;;;4154236;28;20045;-74
2024/01/31 06:00:14;;;;;;;3.75;1.55;;;8.50;99.90;;;;;;4154845;28;20042;-74
2024/01/31 06:02:14;;;;;;;3.33;1.38;;;8.50;99.90;;;;;;4152813;28;20069;-73
2024/01/31 06:04:15;;;;;;;3.97;1.60;;;8.50;99.90;;;;;;4159203;28;20084;-73
2024/01/31 06:06:16;;;;;;;4.30;1.55;;;8.50;99.90;;;;;;4141817;28;20258;-73
2024/01/31 06:08:18;;;;;;;2.30;1.65;;;8.60;99.90;;;;;;4141713;28;20125;-73
2024/01/31 06:10:19;;;;;;;2.80;1.50;;;8.50;99.90;;;;;;4160517;28;20499;-73
2024/01/31 06:12:20;;;;;;;3.92;2.10;;;8.50;99.90;;;;;;4139794;28;20050;-73
2024/01/31 06:14:20;;;;;;;5.82;1.80;;;8.50;99.90;;;;;;4159440;28;20043;-73
2024/01/31 06:16:21;;;;;;;3.05;1.35;;;8.50;99.90;;;;;;4142997;28;20448;-72
2024/01/31 06:18:22;;;;;;;3.83;1.80;;;8.50;99.90;;;;;;4143304;28;20034;-74
2024/01/31 06:20:23;;;;;;;4.63;1.58;;;8.50;99.90;;;;;;4142258;28;20065;-73
2024/01/31 06:22:24;;;;;;;3.22;1.80;;;8.50;99.90;;;;;;4160566;28;20061;-75
2024/01/31 06:24:24;;;;;;;2.60;1.60;;;8.50;99.90;;;;;;4158680;28;20364;-72
2024/01/31 06:26:28;;;;;;;4.05;2.10;;;8.50;99.90;;;;;;4155838;28;20034;-72
2024/01/31 06:28:28;;;;;;;5.60;3.35;;;8.50;99.90;;;;;;4161077;28;20034;-73
2024/01/31 06:30:40;;;;;;;4.78;2.30;;;8.50;99.90;;;;;;4160151;28;20414;-73
2024/01/31 06:32:47;;;;;;;5.20;1.90;;;8.50;99.90;;;;;;4157453;28;20091;-73
2024/01/31 06:34:48;;;;;;;3.97;1.80;;;8.50;99.90;;;;;;4154757;28;20033;-73
2024/01/31 06:36:48;;;;;;;3.53;1.80;;;8.40;99.90;;;;;;4136709;28;20034;-73
2024/01/31 06:38:49;;;;;;;4.32;2.10;;;8.40;99.90;;;;;;4152167;28;20116;-72
2024/01/31 06:40:50;;;;;;;7.45;2.53;;;8.40;99.90;;;;;;4149261;28;20064;-72
2024/01/31 06:42:51;;;;;;;5.22;2.47;;;8.40;99.90;;;;;;4133545;28;20040;-74
2024/01/31 06:44:52;;;;;;;4.00;2.42;;;8.40;99.90;;;;;;4152649;28;20038;-75
2024/01/31 06:46:53;;;;;;;4.20;2.20;;;8.40;99.90;;;;;;4138524;28;20022;-74
2024/01/31 06:48:53;;;;;;;6.03;2.72;;;8.40;99.90;;;;;;4153277;28;20038;-74
2024/01/31 06:50:54;;;;;;;3.88;2.30;;;8.40;99.90;;;;;;4139330;28;20392;-74
2024/01/31 06:52:55;;;;;;;6.15;2.67;;;8.40;99.90;;;;;;4150209;28;20530;-74
2024/01/31 06:54:55;;;;;;;3.78;1.70;;;8.40;99.90;;;;;;4149666;28;20104;-74
2024/01/31 06:56:56;;;;;;;4.30;2.08;;;8.40;99.90;;;;;;4136366;28;21302;-76
2024/01/31 06:58:57;;;;;;;4.30;2.25;;;8.40;99.90;;;;;;4154485;28;20041;-75
2024/01/31 07:01:01;;;;;;;5.13;2.42;;;8.40;99.90;;;;;;4159667;28;20063;-74
2024/01/31 07:03:01;;;;;;;4.40;2.33;;;8.30;99.90;;;;;;4157141;28;20049;-75
2024/01/31 07:05:04;;;;;;;5.65;2.60;;;8.30;99.90;;;;;;4154626;28;20544;-74
2024/01/31 07:07:04;;;;;;;4.75;2.63;;;8.30;99.90;;;;;;4137104;28;20037;-75
2024/01/31 07:09:05;;;;;;;4.75;2.25;;;8.30;99.90;;;;;;4151828;28;20026;-73
2024/01/31 07:11:09;;;;;;;4.38;2.60;;;8.30;99.90;;;;;;4152075;28;20041;-74
2024/01/31 07:13:10;;;;;;;8.30;2.50;;;8.30;99.90;;;;;;4154122;28;20447;-74
2024/01/31 07:15:11;;;;;;;4.65;2.40;;;8.30;99.90;;;;;;4137550;28;20133;-74
2024/01/31 07:17:11;;;;;;;5.18;2.25;;;8.30;99.90;;;;;;4153608;28;20037;-73
2024/01/31 07:19:12;;;;;;;5.30;2.70;;;8.20;99.90;;;;;;4151597;28;20025;-74
2024/01/31 07:21:24;;;;;;;5.43;2.38;;;8.20;99.90;;;;;;4152691;28;20037;-73
2024/01/31 07:23:25;;;;;;;7.37;3.27;;;8.20;99.90;;;;;;4153224;28;20076;-74
2024/01/31 07:25:25;;;;;;;8.63;3.25;;;8.20;99.90;;;;;;4140066;28;21330;-75
2024/01/31 07:27:26;;;;;;;4.70;2.50;;;8.10;99.90;;;;;;4136913;28;20035;-75
2024/01/31 07:29:26;;;;;;;6.07;2.90;;;8.10;99.90;;;;;;4157853;28;20506;-74
2024/01/31 07:31:27;;;;;;;5.55;2.88;;;8.10;99.90;;;;;;4152797;28;20041;-75
2024/01/31 07:33:27;;;;;;;6.45;3.03;;;8.10;99.90;;;;;;4138973;28;20065;-74
2024/01/31 07:35:28;;;;;;;6.60;3.58;;;8.10;99.90;;;;;;4154574;28;20093;-75
2024/01/31 07:37:29;;;;;;;6.40;3.53;;;8.10;99.90;;;;;;4141585;28;20067;-75
2024/01/31 07:39:29;;;;;;;4.80;2.88;;;8.10;99.90;;;;;;4154842;28;21244;-74
2024/01/31 07:41:30;;;;;;;5.15;2.97;;;8.10;99.90;;;;;;4155651;28;20497;-74
2024/01/31 07:43:31;;;;;;;6.85;3.70;;;8.10;99.90;;;;;;4154374;28;20061;-74
2024/01/31 07:45:32;;;;;;;7.68;3.42;;;8.20;99.90;;;;;;4157067;28;20037;-74
2024/01/31 07:47:33;;;;;;;8.60;3.80;;;8.10;99.90;;;;;;4139118;28;20452;-75
2024/01/31 07:49:33;;;;;;;9.65;4.40;;;8.10;99.90;;;;;;4151501;28;20096;-75
2024/01/31 07:51:41;;;;;;;6.38;3.65;;;8.10;99.90;;;;;;4137664;28;20812;-72
2024/01/31 07:53:43;;;;;;;6.80;3.83;;;8.20;99.90;;;;;;4156051;28;20067;-73
2024/01/31 07:55:43;;;;;;;7.70;4.10;;;8.20;99.90;;;;;;4158987;28;20033;-73
2024/01/31 07:57:44;;;;;;;6.18;3.50;;;8.20;99.90;;;;;;4158352;28;20429;-74
2024/01/31 07:59:44;;;;;;;7.55;3.72;;;8.20;99.90;;;;;;4159423;28;20116;-72
2024/01/31 08:01:45;;;;;;;5.80;3.25;;;8.20;99.90;;;;;;4153757;28;20029;-74
2024/01/31 08:03:46;;;;;;;4.32;2.75;;;8.20;99.90;;;;;;4155005;28;20033;-74
2024/01/31 08:05:46;;;;;;;6.97;3.80;;;8.20;99.90;;;;;;4157049;28;20055;-74
2024/01/31 08:07:47;;;;;;;6.18;3.70;;;8.20;99.90;;;;;;4158487;28;20030;-74
2024/01/31 08:09:47;;;;;;;5.93;3.60;;;8.30;99.90;;;;;;4157967;28;20822;-74
2024/01/31 08:11:48;;;;;;;9.93;3.72;;;8.30;99.90;;;;;;4134909;28;20377;-74
2024/01/31 08:13:48;;;;;;;3.88;2.60;;;8.30;99.90;;;;;;4140300;28;20435;-74
2024/01/31 08:15:49;;;;;;;7.47;3.25;;;8.30;99.90;;;;;;4155171;28;20484;-74
2024/01/31 08:17:50;;;;;;;5.20;3.15;;;8.40;99.90;;;;;;4156930;28;20498;-74
2024/01/31 08:19:50;;;;;;;8.43;3.67;;;8.40;99.90;;;;;;4150335;28;20541;-74
2024/01/31 08:21:51;;;;;;;6.32;3.33;;;8.40;99.90;;;;;;4150925;28;20395;-74
2024/01/31 08:23:52;;;;;;;6.32;3.38;;;8.40;99.90;;;;;;4153658;28;20573;-74
2024/01/31 08:25:52;;;;;;;6.68;3.72;;;8.40;99.90;;;;;;4136582;28;20463;-74
2024/01/31 08:27:53;;;;;;;7.65;3.53;;;8.40;99.90;;;;;;4154303;28;20026;-75
2024/01/31 08:29:54;;;;;;;8.18;3.47;;;8.40;99.90;;;;;;4136252;28;20065;-74
2024/01/31 08:31:54;;;;;;;5.60;3.15;;;8.40;99.90;;;;;;4135509;28;20037;-74
2024/01/31 08:33:55;;;;;;;5.28;3.28;;;8.40;99.90;;;;;;4138445;28;20464;-74
2024/01/31 08:35:55;;;;;;;5.00;3.03;;;8.40;99.90;;;;;;4140439;28;20096;-74
2024/01/31 08:37:56;;;;;;;5.47;3.28;;;8.40;99.90;;;;;;4137610;28;20041;-75
2024/01/31 08:39:57;;;;;;;8.55;3.50;;;8.40;99.90;;;;;;4153059;28;20083;-74
2024/01/31 08:41:57;;;;;;;6.53;3.72;;;8.50;99.90;;;;;;4135950;28;20514;-74
2024/01/31 08:43:58;;;;;;;5.53;3.13;;;8.40;99.90;;;;;;4152043;28;20037;-74
2024/01/31 08:45:58;;;;;;;8.00;3.40;;;8.50;99.90;;;;;;4148778;28;20483;-74
2024/01/31 08:47:59;;;;;;;5.78;3.13;;;8.50;99.90;;;;;;4152854;28;20029;-74
2024/01/31 08:50:00;;;;;;;7.47;3.47;;;8.50;99.90;;;;;;4152911;28;20026;-74
2024/01/31 08:52:00;;;;;;;5.95;3.30;;;8.50;99.90;;;;;;4136776;28;20161;-74
2024/01/31 08:54:01;;;;;;;5.88;3.45;;;8.50;99.90;;;;;;4154440;28;20041;-74
2024/01/31 08:56:02;;;;;;;9.93;4.30;;;8.50;99.90;;;;;;4155380;28;20418;-75
2024/01/31 08:58:03;;;;;;;7.45;4.15;;;8.50;99.90;;;;;;4153045;28;20156;-74
2024/01/31 09:00:04;;;;;;;5.72;3.42;;;8.50;99.90;;;;;;4161550;28;20037;-74
2024/01/31 09:02:05;;;;;;;5.75;3.47;;;8.60;99.90;;;;;;4155259;28;20038;-74
2024/01/31 09:04:06;;;;;;;7.55;3.45;;;8.50;99.90;;;;;;4130894;28;20504;-74
2024/01/31 09:06:06;;;;;;;5.50;3.50;;;8.60;99.90;;;;;;4138522;28;20117;-74
2024/01/31 09:08:07;;;;;;;12.48;4.85;;;8.50;99.90;;;;;;4154305;28;20033;-74
2024/01/31 09:10:08;;;;;;;9.52;4.13;;;8.50;99.90;;;;;;4151963;28;20364;-75
2024/01/31 09:12:08;;;;;;;10.48;4.75;;;8.50;99.90;;;;;;4156311;28;20101;-74
2024/01/31 09:14:09;;;;;;;7.95;4.55;;;8.50;99.90;;;;;;4153590;28;20037;-74
2024/01/31 09:16:10;;;;;;;6.78;4.25;;;8.50;99.90;;;;;;4140180;28;20617;-74
2024/01/31 09:18:10;;;;;;;7.88;4.43;;;8.40;99.90;;;;;;4140627;28;20471;-73
2024/01/31 09:20:11;;;;;;;8.95;4.60;;;8.40;99.90;;;;;;4153117;28;20026;-74
2024/01/31 09:22:11;;;;;;;11.82;5.68;;;8.40;99.90;;;;;;4158411;28;20079;-73
2024/01/31 09:24:12;;;;;;;8.88;4.97;;;8.40;99.90;;;;;;4153087;28;20376;-73
2024/01/31 09:26:13;;;;;;;8.77;5.05;;;8.30;99.90;;;;;;4152972;28;20391;-73
2024/01/31 09:28:13;;;;;;;9.10;4.75;;;8.30;99.90;;;;;;4152798;28;20038;-73
2024/01/31 09:30:14;;;;;;;7.15;4.57;;;8.30;99.90;;;;;;4149952;28;20395;-74
2024/01/31 09:32:15;;;;;;;9.90;4.70;;;8.30;99.90;;;;;;4154706;28;20037;-73
2024/01/31 09:34:15;;;;;;;9.13;5.13;;;8.20;99.90;;;;;;4150344;28;20037;-73
2024/01/31 09:36:16;;;;;;;9.32;4.82;;;8.30;99.90;;;;;;4137766;28;20022;-73
2024/01/31 09:38:17;;;;;;;7.82;4.70;;;8.20;99.90;;;;;;4141725;28;20582;-73
2024/01/31 09:40:19;;;;;;;11.20;5.00;;;8.30;99.90;;;;;;4161237;28;20041;-73
2024/01/31 09:42:20;;;;;;;8.27;5.05;;;8.30;99.90;;;;;;4141940;28;20033;-74
2024/01/31 09:44:21;;;;;;;6.78;4.32;;;8.30;99.90;;;;;;4143274;28;20506;-73
2024/01/31 09:46:22;;;;;;;6.97;4.43;;;8.30;99.90;;;;;;4137856;28;20046;-74
2024/01/31 09:48:24;;;;;;;9.57;5.25;;;8.30;99.90;;;;;;4139462;28;20113;-74
2024/01/31 09:50:24;;;;;;;10.93;6.20;;;8.30;99.90;;;;;;4157143;28;20431;-73
2024/01/31 09:52:29;;;;;;;8.65;5.28;;;8.20;99.90;;;;;;4140238;28;20064;-74
2024/01/31 09:54:30;;;;;;;8.73;4.70;;;8.20;99.90;;;;;;4139812;28;20073;-73
2024/01/31 09:56:32;;;;;;;8.25;4.97;;;8.20;99.90;;;;;;4155174;28;20038;-73
2024/01/31 09:58:32;;;;;;;10.70;5.85;;;8.30;99.90;;;;;;4155145;28;20037;-74
2024/01/31 10:00:34;;;;;;;10.27;5.63;;;8.30;99.90;;;;;;4152666;28;20097;-74
2024/01/31 10:02:37;;;;;;;13.30;6.05;;;8.30;99.90;;;;;;4132903;28;20038;-74
2024/01/31 10:04:37;;;;;;;9.25;5.47;;;8.30;99.90;;;;;;4152804;28;20064;-74
2024/01/31 10:06:39;;;;;;;12.60;6.18;;;8.30;99.90;;;;;;4152722;28;20570;-73
2024/01/31 10:08:40;;;;;;;11.80;5.93;;;8.30;99.90;;;;;;4154099;28;20116;-73
2024/01/31 10:10:41;;;;;;;10.70;6.38;;;8.30;99.90;;;;;;4156719;28;20041;-73
2024/01/31 10:12:42;;;;;;;11.45;6.07;;;8.30;99.90;;;;;;4141224;28;20488;-73
2024/01/31 10:14:42;;;;;;;12.82;5.85;;;8.30;99.90;;;;;;4158953;28;20056;-75
2024/01/31 10:16:43;;;;;;;12.40;5.97;;;8.40;99.90;;;;;;4156858;28;20026;-74
2024/01/31 10:18:43;;;;;;;10.35;4.75;;;8.40;99.90;;;;;;4140902;28;20033;-74
2024/01/31 10:20:50;;;;;;;10.77;6.30;;;8.40;99.90;;;;;;4152216;28;20044;-74
2024/01/31 10:22:51;;;;;;;11.30;6.15;;;8.40;99.90;;;;;;4155975;28;20143;-75
2024/01/31 10:24:51;;;;;;;10.88;5.38;;;8.40;99.90;;;;;;4135303;28;20030;-75
2024/01/31 10:26:52;;;;;;;10.07;5.50;;;8.50;99.90;;;;;;4158084;28;20103;-75
2024/01/31 10:28:52;;;;;;;10.98;6.28;;;8.40;99.90;;;;;;4150418;28;20478;-75
2024/01/31 10:30:55;;;;;;;13.32;6.72;;;8.40;99.90;;;;;;4153257;28;20407;-74
2024/01/31 10:32:56;;;;;;;12.98;7.07;;;8.40;99.90;;;;;;4138178;28;20026;-75
2024/01/31 10:34:58;;;;;;;12.07;6.07;;;8.40;99.90;;;;;;4155205;28;20048;-75
2024/01/31 10:37:00;;;;;;;12.18;6.50;;;8.40;99.90;;;;;;4152320;28;20037;-75